createdAt,value
2023-03-11T00:00:18.782Z,26.77
2023-03-11T00:02:51.290Z,31.38
2023-03-11T00:05:21.801Z,24.92
2023-03-11T00:07:48.320Z,21.33
2023-03-11T00:10:18.316Z,24.58
2023-03-11T00:12:44.866Z,23.02
2023-03-11T00:15:12.254Z,24.20
2023-03-11T00:17:39.128Z,22.98
2023-03-11T00:20:07.281Z,22.30
2023-03-11T00:22:33.867Z,21.40
2023-03-11T00:25:00.327Z,24.05
2023-03-11T00:27:26.815Z,27.80
2023-03-11T00:29:53.361Z,23.58
2023-03-11T00:32:19.955Z,26.80
2023-03-11T00:34:46.449Z,20.17
2023-03-11T00:37:12.942Z,23.02
2023-03-11T00:39:39.400Z,20.60
2023-03-11T00:42:06.011Z,21.95
2023-03-11T00:44:32.503Z,26.05
2023-03-11T00:46:59.220Z,21.23
2023-03-11T00:49:25.695Z,22.67
2023-03-11T00:51:52.166Z,23.83
2023-03-11T00:54:18.667Z,24.95
2023-03-11T00:56:45.243Z,25.73
2023-03-11T00:59:12.242Z,20.48
2023-03-11T01:01:38.843Z,25.60
2023-03-11T01:04:05.633Z,19.00
2023-03-11T01:06:44.476Z,22.75
2023-03-11T01:09:11.839Z,19.45
2023-03-11T01:11:38.326Z,25.30
2023-03-11T01:14:05.175Z,27.38
2023-03-11T01:16:31.892Z,23.40
2023-03-11T01:18:58.430Z,19.20
2023-03-11T01:21:24.880Z,24.15
2023-03-11T01:23:51.387Z,22.73
2023-03-11T01:26:17.934Z,22.75
2023-03-11T01:28:44.453Z,23.73
2023-03-11T01:31:11.031Z,23.30
2023-03-11T01:33:38.225Z,18.58
2023-03-11T01:36:05.634Z,24.70
2023-03-11T01:38:32.133Z,24.05
2023-03-11T01:40:58.582Z,16.60
2023-03-11T01:43:37.053Z,24.63
2023-03-11T01:46:25.673Z,23.65
2023-03-11T01:49:00.498Z,21.25
2023-03-11T01:51:35.599Z,21.13
2023-03-11T01:54:11.514Z,18.33
2023-03-11T01:56:39.914Z,21.67
2023-03-11T01:59:08.826Z,19.50
2023-03-11T02:01:41.499Z,24.63
2023-03-11T02:04:08.245Z,19.95
2023-03-11T02:06:34.777Z,21.17
2023-03-11T02:09:02.066Z,18.45
2023-03-11T02:11:31.052Z,24.40
2023-03-11T02:14:03.055Z,23.52
2023-03-11T02:16:29.680Z,19.07
2023-03-11T02:19:00.488Z,21.05
2023-03-11T02:21:32.719Z,24.13
2023-03-11T02:24:25.032Z,23.90
2023-03-11T02:27:12.003Z,24.05
2023-03-11T02:29:39.132Z,22.27
2023-03-11T02:32:08.390Z,27.95
2023-03-11T02:34:39.126Z,23.58
2023-03-11T02:37:12.878Z,23.27
2023-03-11T02:39:45.293Z,21.50
2023-03-11T02:42:35.956Z,25.67
2023-03-11T02:45:12.312Z,21.58
2023-03-11T02:47:40.463Z,25.38
2023-03-11T02:50:12.149Z,19.60
2023-03-11T02:52:39.179Z,19.30
2023-03-11T02:55:10.256Z,20.45
2023-03-11T02:57:38.843Z,20.77
2023-03-11T03:00:12.754Z,20.38
2023-03-11T03:02:45.506Z,19.48
2023-03-11T03:05:13.159Z,14.17
2023-03-11T03:07:40.490Z,17.55
2023-03-11T03:10:08.231Z,20.25
2023-03-11T03:12:35.739Z,24.10
2023-03-11T03:15:02.535Z,23.77
2023-03-11T03:17:29.235Z,20.45
2023-03-11T03:19:55.969Z,20.05
2023-03-11T03:22:22.633Z,14.25
2023-03-11T03:24:49.338Z,20.20
2023-03-11T03:27:16.084Z,21.25
2023-03-11T03:29:42.671Z,20.40
2023-03-11T03:32:09.376Z,19.55
2023-03-11T03:34:36.092Z,24.60
2023-03-11T03:37:02.755Z,25.50
2023-03-11T03:39:30.742Z,20.05
2023-03-11T03:41:58.156Z,18.63
2023-03-11T03:44:26.597Z,17.80
2023-03-11T03:46:53.401Z,16.23
2023-03-11T03:49:20.117Z,20.25
2023-03-11T03:51:47.264Z,21.70
2023-03-11T03:54:22.632Z,17.85
2023-03-11T03:56:49.994Z,18.90
2023-03-11T03:59:17.087Z,19.75
2023-03-11T04:01:49.605Z,18.83
2023-03-11T04:04:17.551Z,20.38
2023-03-11T04:06:44.169Z,26.70
2023-03-11T04:09:12.002Z,20.73
2023-03-11T04:11:38.779Z,21.35
2023-03-11T04:14:05.990Z,18.92
2023-03-11T04:16:36.795Z,18.00
2023-03-11T04:19:09.431Z,16.73
2023-03-11T04:21:36.629Z,17.98
2023-03-11T04:24:04.357Z,22.70
2023-03-11T04:26:34.969Z,23.50
2023-03-11T04:29:02.740Z,20.67
2023-03-11T04:31:33.857Z,25.00
2023-03-11T04:34:04.715Z,20.48
2023-03-11T04:36:31.409Z,21.73
2023-03-11T04:38:58.199Z,19.15
2023-03-11T04:41:26.877Z,20.52
2023-03-11T04:43:54.105Z,18.75
2023-03-11T04:46:21.220Z,21.50
2023-03-11T04:48:48.779Z,23.45
2023-03-11T04:51:15.483Z,18.65
2023-03-11T04:53:42.457Z,26.73
2023-03-11T04:56:09.261Z,25.13
2023-03-11T04:58:38.283Z,24.40
2023-03-11T05:01:06.509Z,22.95
2023-03-11T05:03:35.550Z,31.08
2023-03-11T05:06:02.130Z,24.25
2023-03-11T05:08:28.690Z,22.20
2023-03-11T05:10:55.433Z,22.67
2023-03-11T05:13:22.994Z,24.27
2023-03-11T05:15:51.772Z,26.70
2023-03-11T05:18:18.362Z,23.23
2023-03-11T05:20:45.669Z,22.73
2023-03-11T05:23:13.820Z,33.25
2023-03-11T05:25:40.863Z,20.98
2023-03-11T05:28:08.308Z,22.17
2023-03-11T05:30:40.432Z,25.40
2023-03-11T05:33:08.852Z,25.63
2023-03-11T05:35:35.986Z,24.10
2023-03-11T05:38:02.918Z,26.40
2023-03-11T05:40:30.482Z,23.00
2023-03-11T05:42:57.216Z,25.38
2023-03-11T05:45:25.378Z,21.23
2023-03-11T05:47:53.556Z,21.67
2023-03-11T05:50:20.319Z,21.63
2023-03-11T05:52:48.407Z,22.73
2023-03-11T05:55:15.612Z,25.50
2023-03-11T05:57:44.555Z,23.33
2023-03-11T06:00:11.866Z,20.75
2023-03-11T06:02:43.048Z,21.50
2023-03-11T06:05:13.903Z,24.80
2023-03-11T06:07:42.986Z,17.13
2023-03-11T06:10:10.740Z,31.17
2023-03-11T06:12:39.231Z,27.85
2023-03-11T06:15:27.532Z,27.40
2023-03-11T06:17:54.285Z,20.85
2023-03-11T06:20:21.502Z,21.55
2023-03-11T06:22:49.356Z,25.77
2023-03-11T06:25:16.329Z,28.13
2023-03-11T06:27:44.307Z,25.10
2023-03-11T06:30:11.848Z,19.08
2023-03-11T06:32:47.220Z,24.02
2023-03-11T06:35:14.508Z,19.50
2023-03-11T06:37:41.389Z,23.30
2023-03-11T06:40:10.104Z,26.13
2023-03-11T06:42:37.011Z,22.17
2023-03-11T06:45:04.994Z,22.50
2023-03-11T06:47:32.076Z,21.33
2023-03-11T06:49:59.921Z,22.95
2023-03-11T06:52:27.180Z,24.02
2023-03-11T06:54:55.632Z,26.05
2023-03-11T06:57:22.466Z,24.67
2023-03-11T06:59:50.910Z,28.45
2023-03-11T07:02:18.531Z,22.60
2023-03-11T07:04:52.137Z,21.38
2023-03-11T07:07:19.696Z,23.92
2023-03-11T07:09:46.361Z,26.08
2023-03-11T07:12:14.215Z,25.67
2023-03-11T07:14:40.884Z,22.50
2023-03-11T07:17:07.535Z,26.95
2023-03-11T07:22:05.646Z,21.40
2023-03-11T07:24:32.243Z,22.13
2023-03-11T07:26:58.808Z,22.67
2023-03-11T07:29:25.459Z,23.55
2023-03-11T07:31:52.027Z,20.70
2023-03-11T07:34:18.982Z,22.13
2023-03-11T07:36:45.652Z,22.48
2023-03-11T07:39:19.966Z,22.52
2023-03-11T07:41:47.398Z,24.80
2023-03-11T07:44:15.831Z,21.52
2023-03-11T07:46:43.401Z,17.48
2023-03-11T07:49:10.503Z,16.92
2023-03-11T07:51:37.992Z,23.35
2023-03-11T07:54:05.221Z,21.35
2023-03-11T07:56:34.529Z,20.55
2023-03-11T07:59:02.770Z,21.90
2023-03-11T08:01:31.846Z,22.35
2023-03-11T08:03:58.506Z,17.58
2023-03-11T08:06:28.519Z,20.13
2023-03-11T08:08:55.133Z,25.33
2023-03-11T08:11:21.760Z,24.80
2023-03-11T08:13:49.161Z,23.98
2023-03-11T08:16:18.939Z,28.45
2023-03-11T08:18:50.206Z,24.27
2023-03-11T08:21:20.085Z,33.55
2023-03-11T08:23:46.741Z,21.80
2023-03-11T08:26:16.320Z,21.63
2023-03-11T08:28:42.970Z,21.58
2023-03-11T08:31:20.834Z,19.52
2023-03-11T08:33:49.914Z,18.15
2023-03-11T08:36:17.864Z,20.85
2023-03-11T08:38:44.597Z,22.90
2023-03-11T08:41:11.302Z,18.08
2023-03-11T08:43:38.366Z,21.75
2023-03-11T08:46:06.038Z,15.27
2023-03-11T08:48:33.257Z,17.33
2023-03-11T08:51:00.203Z,17.05
2023-03-11T08:53:26.860Z,15.15
2023-03-11T08:55:53.494Z,11.75
2023-03-11T08:58:21.046Z,20.05
2023-03-11T09:00:48.335Z,12.50
2023-03-11T09:03:15.300Z,15.00
2023-03-11T09:05:43.194Z,12.55
2023-03-11T09:08:09.781Z,13.63
2023-03-11T09:10:36.422Z,11.18
2023-03-11T09:13:03.433Z,13.55
2023-03-11T09:15:29.943Z,14.15
2023-03-11T09:17:56.518Z,10.45
2023-03-11T09:20:23.336Z,11.20
2023-03-11T09:22:49.950Z,18.23
2023-03-11T09:25:16.771Z,15.18
2023-03-11T09:27:44.063Z,12.93
2023-03-11T09:30:11.328Z,15.55
2023-03-11T09:32:37.983Z,9.98
2023-03-11T09:35:05.094Z,12.88
2023-03-11T09:37:31.791Z,15.10
2023-03-11T09:39:59.033Z,8.30
2023-03-11T09:42:43.373Z,6.63
2023-03-11T09:45:39.379Z,6.28
2023-03-11T09:48:22.747Z,5.63
2023-03-11T09:51:20.462Z,11.85
2023-03-11T09:53:52.070Z,7.07
2023-03-11T09:56:20.703Z,8.30
2023-03-11T09:58:48.554Z,4.57
2023-03-11T10:01:25.980Z,7.10
2023-03-11T10:03:56.511Z,6.53
2023-03-11T10:06:25.070Z,6.75
2023-03-11T10:09:14.017Z,8.75
2023-03-11T10:12:10.325Z,7.88
2023-03-11T10:15:07.018Z,11.93
2023-03-11T10:17:36.540Z,8.40
2023-03-11T10:20:19.936Z,7.28
2023-03-11T10:23:00.003Z,7.57
2023-03-11T10:25:29.748Z,9.15
2023-03-11T10:28:12.291Z,7.05
2023-03-11T10:30:52.880Z,8.90
2023-03-11T10:33:47.715Z,9.10
2023-03-11T10:36:21.258Z,9.43
2023-03-11T10:38:49.073Z,9.52
2023-03-11T10:41:15.602Z,6.43
2023-03-11T10:43:49.197Z,7.72
2023-03-11T10:46:20.645Z,5.53
2023-03-11T10:48:47.387Z,4.18
2023-03-11T10:51:19.254Z,8.35
2023-03-11T10:54:06.055Z,6.18
2023-03-11T10:56:41.227Z,6.18
2023-03-11T10:59:28.987Z,5.60
2023-03-11T11:02:24.177Z,7.47
2023-03-11T11:05:18.970Z,6.70
2023-03-11T11:07:51.463Z,9.73
2023-03-11T11:10:32.340Z,7.93
2023-03-11T11:13:12.593Z,5.40
2023-03-11T11:15:59.504Z,5.88
2023-03-11T11:18:49.457Z,4.53
2023-03-11T11:21:28.515Z,5.63
2023-03-11T11:24:18.285Z,4.05
2023-03-11T11:27:04.046Z,3.80
2023-03-11T11:29:32.344Z,8.32
2023-03-11T11:32:19.792Z,3.17
2023-03-11T11:34:53.863Z,9.48
2023-03-11T11:37:20.849Z,5.35
2023-03-11T11:39:54.102Z,12.45
2023-03-11T11:42:21.969Z,6.93
2023-03-11T11:44:58.944Z,9.18
2023-03-11T11:47:33.089Z,6.90
2023-03-11T11:50:03.239Z,8.18
2023-03-11T11:52:52.580Z,3.00
2023-03-11T11:55:29.040Z,5.57
2023-03-11T11:57:56.552Z,4.53
2023-03-11T12:00:34.470Z,3.97
2023-03-11T12:03:27.393Z,5.32
2023-03-11T12:06:04.912Z,6.30
2023-03-11T12:09:17.157Z,4.05
2023-03-11T12:11:55.118Z,4.45
2023-03-11T12:14:39.687Z,7.20
2023-03-11T12:17:08.495Z,5.50
2023-03-11T12:19:43.980Z,6.38
2023-03-11T12:22:13.424Z,11.57
2023-03-11T12:25:01.884Z,5.55
2023-03-11T12:27:47.808Z,7.97
2023-03-11T12:30:21.782Z,4.95
2023-03-11T12:32:56.291Z,5.88
2023-03-11T12:35:24.582Z,5.90
2023-03-11T12:38:04.681Z,5.72
2023-03-11T12:40:49.456Z,6.20
2023-03-11T12:43:31.338Z,9.05
2023-03-11T12:45:58.530Z,8.20
2023-03-11T12:48:44.434Z,6.55
2023-03-11T12:51:26.249Z,5.13
2023-03-11T12:53:54.520Z,6.07
2023-03-11T12:56:50.352Z,6.85
2023-03-11T12:59:32.136Z,5.25
2023-03-11T13:04:49.813Z,3.78
2023-03-11T13:07:22.132Z,5.15
2023-03-11T13:10:07.089Z,6.90
2023-03-11T13:12:45.195Z,7.25
2023-03-11T13:15:21.014Z,9.05
2023-03-11T13:18:04.639Z,3.42
2023-03-11T13:20:40.224Z,7.32
2023-03-11T13:23:12.833Z,7.40
2023-03-11T13:25:56.480Z,6.63
2023-03-11T13:28:28.943Z,5.50
2023-03-11T13:31:19.432Z,5.07
2023-03-11T13:33:49.470Z,5.43
2023-03-11T13:36:38.105Z,8.00
2023-03-11T13:39:19.105Z,7.43
2023-03-11T13:41:46.204Z,3.25
2023-03-11T13:44:33.626Z,3.95
2023-03-11T13:47:07.254Z,6.85
2023-03-11T13:49:44.333Z,10.15
2023-03-11T13:53:03.410Z,5.93
2023-03-11T13:55:44.594Z,10.07
2023-03-11T13:58:22.504Z,7.38
2023-03-11T14:00:51.634Z,5.55
2023-03-11T14:03:18.830Z,6.55
2023-03-11T14:05:47.660Z,9.02
2023-03-11T14:08:30.841Z,6.13
2023-03-11T14:10:57.339Z,8.43
2023-03-11T14:13:25.977Z,6.10
2023-03-11T14:16:01.693Z,6.55
2023-03-11T14:18:39.517Z,7.93
2023-03-11T14:21:19.415Z,8.88
2023-03-11T14:23:52.413Z,7.85
2023-03-11T14:26:23.561Z,7.22
2023-03-11T14:28:52.955Z,9.18
2023-03-11T14:31:24.075Z,5.57
2023-03-11T14:33:57.369Z,6.57
2023-03-11T14:36:23.955Z,9.38
2023-03-11T14:38:50.496Z,9.63
2023-03-11T14:41:17.138Z,8.25
2023-03-11T14:43:49.460Z,10.82
2023-03-11T14:46:22.150Z,6.03
2023-03-11T14:48:48.685Z,8.68
2023-03-11T14:51:23.173Z,9.80
2023-03-11T14:53:55.801Z,6.72
2023-03-11T14:56:26.117Z,7.35
2023-03-11T14:59:07.668Z,4.82
2023-03-11T15:01:40.301Z,4.53
2023-03-11T15:04:12.979Z,8.88
2023-03-11T15:06:45.118Z,8.02
2023-03-11T15:09:15.363Z,8.63
2023-03-11T15:11:57.140Z,6.05
2023-03-11T15:17:35.219Z,13.40
2023-03-11T15:20:04.191Z,5.80
2023-03-11T15:22:40.527Z,6.15
2023-03-11T15:25:19.207Z,6.53
2023-03-11T15:27:46.782Z,9.93
2023-03-11T15:30:19.912Z,5.03
2023-03-11T15:32:47.381Z,7.93
2023-03-11T15:35:21.735Z,7.20
2023-03-11T15:38:12.527Z,6.03
2023-03-11T15:40:45.575Z,4.63
2023-03-11T15:43:20.337Z,8.57
2023-03-11T15:45:47.232Z,5.88
2023-03-11T15:48:14.030Z,5.82
2023-03-11T15:50:53.387Z,7.18
2023-03-11T15:53:22.294Z,5.97
2023-03-11T15:55:49.561Z,8.07
2023-03-11T15:58:19.197Z,7.53
2023-03-11T16:00:54.968Z,9.70
2023-03-11T16:03:22.108Z,8.52
2023-03-11T16:05:49.310Z,7.78
2023-03-11T16:08:16.722Z,5.65
2023-03-11T16:10:43.636Z,7.28
2023-03-11T16:13:13.234Z,7.25
2023-03-11T16:15:40.553Z,6.97
2023-03-11T16:18:08.062Z,8.27
2023-03-11T16:20:55.211Z,7.38
2023-03-11T16:23:25.976Z,5.32
2023-03-11T16:25:58.517Z,6.53
2023-03-11T16:28:25.384Z,5.13
2023-03-11T16:30:52.111Z,6.82
2023-03-11T16:33:18.838Z,8.20
2023-03-11T16:35:46.470Z,5.00
2023-03-11T16:38:13.122Z,7.32
2023-03-11T16:40:40.073Z,32.47
2023-03-11T16:43:10.081Z,4.97
2023-03-11T16:45:37.184Z,5.72
2023-03-11T16:48:04.221Z,3.92
2023-03-11T16:50:31.959Z,7.70
2023-03-11T16:52:59.240Z,6.78
2023-03-11T16:55:27.263Z,7.68
2023-03-11T16:57:54.098Z,8.98
2023-03-11T17:00:20.974Z,8.60
2023-03-11T17:02:47.526Z,5.00
2023-03-11T17:05:14.165Z,9.38
2023-03-11T17:07:40.768Z,6.85
2023-03-11T17:10:09.052Z,4.45
2023-03-11T17:12:35.618Z,6.28
2023-03-11T17:15:02.430Z,4.78
2023-03-11T17:17:29.037Z,8.05
2023-03-11T17:19:55.550Z,5.85
2023-03-11T17:22:22.050Z,6.22
2023-03-11T17:24:48.556Z,7.68
2023-03-11T17:27:15.303Z,10.65
2023-03-11T17:29:41.990Z,6.85
2023-03-11T17:32:08.835Z,5.80
2023-03-11T17:34:35.603Z,10.73
2023-03-11T17:37:02.155Z,7.10
2023-03-11T17:39:31.314Z,8.25
2023-03-11T17:41:57.926Z,7.28
2023-03-11T17:44:24.487Z,7.55
2023-03-11T17:46:51.191Z,6.95
2023-03-11T17:49:17.795Z,8.40
2023-03-11T17:51:44.598Z,6.50
2023-03-11T17:54:11.181Z,7.88
2023-03-11T17:56:37.680Z,10.82
2023-03-11T17:59:04.256Z,8.50
2023-03-11T18:01:30.891Z,7.53
2023-03-11T18:03:57.542Z,9.32
2023-03-11T18:06:24.824Z,7.35
2023-03-11T18:08:51.436Z,6.75
2023-03-11T18:11:21.705Z,10.10
2023-03-11T18:13:48.973Z,4.28
2023-03-11T18:16:24.362Z,11.70
2023-03-11T18:18:51.957Z,11.02
2023-03-11T18:21:21.082Z,6.13
2023-03-11T18:23:48.285Z,13.38
2023-03-11T18:26:17.548Z,9.45
2023-03-11T18:28:44.332Z,6.40
2023-03-11T18:31:13.781Z,11.52
2023-03-11T18:33:42.636Z,6.13
2023-03-11T18:36:24.270Z,6.78
2023-03-11T18:38:52.877Z,7.85
2023-03-11T18:41:19.659Z,11.77
2023-03-11T18:43:46.927Z,7.97
2023-03-11T18:46:16.157Z,5.53
2023-03-11T18:48:43.011Z,8.82
2023-03-11T18:51:09.548Z,7.97
2023-03-11T18:53:36.594Z,7.30
2023-03-11T18:56:06.283Z,8.38
2023-03-11T18:58:33.168Z,5.70
2023-03-11T19:01:09.887Z,5.57
2023-03-11T19:03:36.643Z,4.82
2023-03-11T19:06:03.282Z,5.65
2023-03-11T19:08:30.077Z,5.13
2023-03-11T19:10:56.676Z,4.97
2023-03-11T19:13:23.350Z,8.45
2023-03-11T19:15:50.505Z,5.03
2023-03-11T19:18:17.170Z,4.18
2023-03-11T19:20:43.720Z,4.22
2023-03-11T19:23:10.319Z,8.48
2023-03-11T19:25:37.726Z,6.32
2023-03-11T19:28:04.475Z,5.45
2023-03-11T19:30:31.083Z,6.20
2023-03-11T19:32:57.663Z,6.55
2023-03-11T19:35:24.209Z,8.07
2023-03-11T19:37:50.966Z,4.63
2023-03-11T19:40:17.973Z,5.45
2023-03-11T19:42:44.533Z,8.18
2023-03-11T19:45:11.480Z,9.00
2023-03-11T19:47:38.918Z,7.20
2023-03-11T19:50:08.714Z,8.00
2023-03-11T19:52:35.826Z,8.30
2023-03-11T19:55:02.828Z,11.45
2023-03-11T19:57:34.022Z,4.68
2023-03-11T20:00:01.339Z,7.75
2023-03-11T20:02:28.214Z,6.63
2023-03-11T20:04:58.473Z,7.90
2023-03-11T20:09:56.059Z,6.55
2023-03-11T20:12:23.558Z,7.80
2023-03-11T20:14:51.365Z,10.27
2023-03-11T20:20:00.184Z,11.95
2023-03-11T20:22:27.074Z,7.53
2023-03-11T20:24:53.973Z,6.80
2023-03-11T20:27:24.930Z,9.00
2023-03-11T20:29:52.131Z,8.10
2023-03-11T20:32:19.610Z,11.13
2023-03-11T20:34:47.437Z,10.68
2023-03-11T20:37:14.866Z,9.90
2023-03-11T20:39:43.552Z,11.80
2023-03-11T20:42:12.436Z,8.02
2023-03-11T20:44:40.196Z,7.03
2023-03-11T20:47:11.214Z,8.20
2023-03-11T20:49:38.359Z,7.85
2023-03-11T20:54:46.866Z,9.10
2023-03-11T20:57:14.888Z,9.55
2023-03-11T20:59:41.621Z,13.70
2023-03-11T21:02:12.195Z,11.57
2023-03-11T21:04:39.436Z,8.23
2023-03-11T21:07:06.430Z,9.38
2023-03-11T21:09:33.717Z,11.70
2023-03-11T21:12:02.539Z,16.10
2023-03-11T21:14:29.814Z,8.82
2023-03-11T21:16:57.368Z,12.60
2023-03-11T21:19:24.813Z,10.55
2023-03-11T21:21:51.742Z,10.50
2023-03-11T21:24:18.770Z,11.63
2023-03-11T21:26:46.270Z,14.13
2023-03-11T21:29:13.518Z,10.13
2023-03-11T21:31:40.430Z,10.85
2023-03-11T21:34:13.613Z,10.52
2023-03-11T21:36:40.702Z,15.95
2023-03-11T21:39:07.837Z,11.55
2023-03-11T21:41:34.546Z,10.57
2023-03-11T21:44:01.416Z,10.55
2023-03-11T21:46:30.784Z,12.90
2023-03-11T21:48:58.488Z,9.68
2023-03-11T21:51:25.873Z,11.85
2023-03-11T21:53:52.622Z,12.00
2023-03-11T21:56:19.553Z,12.23
2023-03-11T21:58:46.341Z,13.40
2023-03-11T22:01:13.025Z,10.07
2023-03-11T22:03:39.753Z,10.40
2023-03-11T22:06:12.320Z,12.73
2023-03-11T22:08:40.514Z,15.32
2023-03-11T22:11:09.681Z,9.93
2023-03-11T22:13:36.874Z,9.65
2023-03-11T22:16:06.972Z,13.45
2023-03-11T22:18:34.002Z,11.57
2023-03-11T22:21:01.693Z,10.98
2023-03-11T22:23:28.416Z,12.15
2023-03-11T22:25:55.125Z,15.13
2023-03-11T22:28:21.807Z,15.05
2023-03-11T22:30:48.374Z,13.40
2023-03-11T22:33:14.926Z,11.73
2023-03-11T22:35:41.529Z,11.38
2023-03-11T22:38:08.100Z,14.57
2023-03-11T22:40:34.935Z,14.95
2023-03-11T22:43:01.511Z,13.35
2023-03-11T22:45:28.088Z,16.30
2023-03-11T22:47:54.610Z,16.40
2023-03-11T22:50:21.153Z,13.50
2023-03-11T22:52:47.762Z,15.50
2023-03-11T22:55:14.302Z,14.30
2023-03-11T22:57:40.870Z,14.80
2023-03-11T23:00:16.605Z,16.75
2023-03-11T23:02:45.195Z,14.80
2023-03-11T23:05:15.712Z,16.42
2023-03-11T23:07:42.830Z,17.25
2023-03-11T23:10:11.552Z,14.77
2023-03-11T23:12:38.940Z,14.90
2023-03-11T23:15:08.675Z,15.90
2023-03-11T23:17:35.708Z,18.42
2023-03-11T23:20:03.571Z,13.65
2023-03-11T23:22:30.207Z,15.85
2023-03-11T23:25:00.622Z,16.95
2023-03-11T23:27:28.754Z,15.05
2023-03-11T23:29:55.340Z,16.88
2023-03-11T23:32:22.052Z,21.63
2023-03-11T23:34:48.569Z,20.17
2023-03-11T23:37:15.152Z,18.50
2023-03-11T23:39:41.690Z,16.30
2023-03-11T23:42:24.569Z,20.08
2023-03-11T23:44:53.093Z,23.13
2023-03-11T23:47:19.905Z,20.52
2023-03-11T23:49:46.518Z,26.83
2023-03-11T23:52:13.145Z,25.45
2023-03-11T23:54:39.643Z,17.33
2023-03-11T23:57:06.235Z,28.83
2023-03-11T23:59:32.824Z,27.13
